sensor_id;sensor_type;location;lat;lon;timestamp;temperature;humidity
54518;DHT22;40423;53.176;6.002;2022-11-20T00:00:35;0.80;99.90
54518;DHT22;40423;53.176;6.002;2022-11-20T00:03:01;0.80;99.90
54518;DHT22;40423;53.176;6.002;2022-11-20T00:05:27;0.80;99.90
54518;DHT22;40423;53.176;6.002;2022-11-20T00:07:53;0.80;99.90
54518;DHT22;40423;53.176;6.002;2022-11-20T00:10:18;0.90;99.90
54518;DHT22;40423;53.176;6.002;2022-11-20T00:12:44;0.90;99.90
54518;DHT22;40423;53.176;6.002;2022-11-20T00:15:10;0.90;99.90
54518;DHT22;40423;53.176;6.002;2022-11-20T00:17:35;0.90;99.90
54518;DHT22;40423;53.176;6.002;2022-11-20T00:20:01;0.90;99.90
54518;DHT22;40423;53.176;6.002;2022-11-20T00:22:27;1.00;99.90
54518;DHT22;40423;53.176;6.002;2022-11-20T00:24:52;1.00;99.90
54518;DHT22;40423;53.176;6.002;2022-11-20T00:27:18;0.90;99.90
54518;DHT22;40423;53.176;6.002;2022-11-20T00:29:44;0.90;99.90
54518;DHT22;40423;53.176;6.002;2022-11-20T00:32:09;1.00;99.90
54518;DHT22;40423;53.176;6.002;2022-11-20T00:34:35;1.00;99.90
54518;DHT22;40423;53.176;6.002;2022-11-20T00:37:01;1.00;99.90
54518;DHT22;40423;53.176;6.002;2022-11-20T00:39:26;1.00;99.90
54518;DHT22;40423;53.176;6.002;2022-11-20T00:41:52;1.10;99.90
54518;DHT22;40423;53.176;6.002;2022-11-20T00:44:18;1.10;99.90
54518;DHT22;40423;53.176;6.002;2022-11-20T00:46:43;1.10;99.90
54518;DHT22;40423;53.176;6.002;2022-11-20T00:49:09;1.10;99.90
54518;DHT22;40423;53.176;6.002;2022-11-20T00:51:35;1.10;99.90
54518;DHT22;40423;53.176;6.002;2022-11-20T00:54:00;1.10;99.90
54518;DHT22;40423;53.176;6.002;2022-11-20T00:56:27;1.10;99.90
54518;DHT22;40423;53.176;6.002;2022-11-20T00:58:53;1.10;99.90
54518;DHT22;40423;53.176;6.002;2022-11-20T01:01:25;1.00;99.90
54518;DHT22;40423;53.176;6.002;2022-11-20T01:03:52;0.30;99.90
54518;DHT22;40423;53.176;6.002;2022-11-20T01:06:26;1.00;99.90
54518;DHT22;40423;53.176;6.002;2022-11-20T01:08:54;1.10;99.90
54518;DHT22;40423;53.176;6.002;2022-11-20T01:11:23;1.10;99.90
54518;DHT22;40423;53.176;6.002;2022-11-20T01:13:49;1.00;99.90
54518;DHT22;40423;53.176;6.002;2022-11-20T01:16:23;1.00;99.90
54518;DHT22;40423;53.176;6.002;2022-11-20T01:18:51;0.90;99.90
54518;DHT22;40423;53.176;6.002;2022-11-20T01:21:23;0.90;99.90
54518;DHT22;40423;53.176;6.002;2022-11-20T01:23:50;0.90;99.90
54518;DHT22;40423;53.176;6.002;2022-11-20T01:26:19;0.90;99.90
54518;DHT22;40423;53.176;6.002;2022-11-20T01:28:45;0.90;99.90
54518;DHT22;40423;53.176;6.002;2022-11-20T01:31:18;1.00;99.90
54518;DHT22;40423;53.176;6.002;2022-11-20T01:33:45;1.00;99.90
54518;DHT22;40423;53.176;6.002;2022-11-20T01:36:11;0.90;99.90
54518;DHT22;40423;53.176;6.002;2022-11-20T01:38:38;1.00;99.90
54518;DHT22;40423;53.176;6.002;2022-11-20T01:41:04;1.00;99.90
54518;DHT22;40423;53.176;6.002;2022-11-20T01:43:30;1.00;99.90
54518;DHT22;40423;53.176;6.002;2022-11-20T01:46:18;1.00;99.90
54518;DHT22;40423;53.176;6.002;2022-11-20T01:48:49;1.00;99.90
54518;DHT22;40423;53.176;6.002;2022-11-20T01:51:21;1.00;99.90
54518;DHT22;40423;53.176;6.002;2022-11-20T01:53:47;1.00;99.90
54518;DHT22;40423;53.176;6.002;2022-11-20T01:56:14;1.00;99.90
54518;DHT22;40423;53.176;6.002;2022-11-20T01:58:54;1.00;99.90
54518;DHT22;40423;53.176;6.002;2022-11-20T02:01:21;1.00;99.90
54518;DHT22;40423;53.176;6.002;2022-11-20T02:03:48;1.10;99.90
54518;DHT22;40423;53.176;6.002;2022-11-20T02:06:35;1.10;99.90
54518;DHT22;40423;53.176;6.002;2022-11-20T02:09:01;1.10;99.90
54518;DHT22;40423;53.176;6.002;2022-11-20T02:11:27;1.10;99.90
54518;DHT22;40423;53.176;6.002;2022-11-20T02:13:53;1.10;99.90
54518;DHT22;40423;53.176;6.002;2022-11-20T02:16:26;1.10;99.90
54518;DHT22;40423;53.176;6.002;2022-11-20T02:18:55;1.10;99.90
54518;DHT22;40423;53.176;6.002;2022-11-20T02:21:45;1.10;99.90
54518;DHT22;40423;53.176;6.002;2022-11-20T02:24:18;1.10;99.90
54518;DHT22;40423;53.176;6.002;2022-11-20T02:26:51;1.10;99.90
54518;DHT22;40423;53.176;6.002;2022-11-20T02:29:32;1.10;99.90
54518;DHT22;40423;53.176;6.002;2022-11-20T02:32:00;1.10;99.90
54518;DHT22;40423;53.176;6.002;2022-11-20T02:34:27;1.10;99.90
54518;DHT22;40423;53.176;6.002;2022-11-20T02:36:53;1.10;99.90
54518;DHT22;40423;53.176;6.002;2022-11-20T02:39:19;1.10;99.90
54518;DHT22;40423;53.176;6.002;2022-11-20T02:41:45;1.10;99.90
54518;DHT22;40423;53.176;6.002;2022-11-20T02:44:12;1.10;99.90
54518;DHT22;40423;53.176;6.002;2022-11-20T02:46:38;1.10;99.90
54518;DHT22;40423;53.176;6.002;2022-11-20T02:49:04;1.10;99.90
54518;DHT22;40423;53.176;6.002;2022-11-20T02:51:31;1.10;99.90
54518;DHT22;40423;53.176;6.002;2022-11-20T02:53:57;1.10;99.90
54518;DHT22;40423;53.176;6.002;2022-11-20T02:56:23;1.10;99.90
54518;DHT22;40423;53.176;6.002;2022-11-20T02:58:49;1.10;99.90
54518;DHT22;40423;53.176;6.002;2022-11-20T03:01:15;1.10;99.90
54518;DHT22;40423;53.176;6.002;2022-11-20T03:03:40;1.10;99.90
54518;DHT22;40423;53.176;6.002;2022-11-20T03:06:07;1.10;99.90
54518;DHT22;40423;53.176;6.002;2022-11-20T03:08:33;1.10;99.90
54518;DHT22;40423;53.176;6.002;2022-11-20T03:11:06;1.10;99.90
54518;DHT22;40423;53.176;6.002;2022-11-20T03:13:33;1.10;99.90
54518;DHT22;40423;53.176;6.002;2022-11-20T03:16:14;1.20;99.90
54518;DHT22;40423;53.176;6.002;2022-11-20T03:18:41;1.20;99.90
54518;DHT22;40423;53.176;6.002;2022-11-20T03:21:08;1.20;99.90
54518;DHT22;40423;53.176;6.002;2022-11-20T03:23:34;1.90;99.90
54518;DHT22;40423;53.176;6.002;2022-11-20T03:26:27;1.20;99.90
54518;DHT22;40423;53.176;6.002;2022-11-20T03:28:58;1.30;99.90
54518;DHT22;40423;53.176;6.002;2022-11-20T03:31:29;1.30;99.90
54518;DHT22;40423;53.176;6.002;2022-11-20T03:33:59;1.30;99.90
54518;DHT22;40423;53.176;6.002;2022-11-20T03:36:25;1.30;99.90
54518;DHT22;40423;53.176;6.002;2022-11-20T03:38:53;1.20;99.90
54518;DHT22;40423;53.176;6.002;2022-11-20T03:41:21;1.30;99.90
54518;DHT22;40423;53.176;6.002;2022-11-20T03:43:52;1.30;99.90
54518;DHT22;40423;53.176;6.002;2022-11-20T03:46:19;1.30;99.90
54518;DHT22;40423;53.176;6.002;2022-11-20T03:48:45;1.30;99.90
54518;DHT22;40423;53.176;6.002;2022-11-20T03:53:37;1.40;99.90
54518;DHT22;40423;53.176;6.002;2022-11-20T03:56:03;0.80;99.90
54518;DHT22;40423;53.176;6.002;2022-11-20T03:58:29;1.30;99.90
54518;DHT22;40423;53.176;6.002;2022-11-20T04:00:54;1.30;99.90
54518;DHT22;40423;53.176;6.002;2022-11-20T04:03:20;1.30;99.90
54518;DHT22;40423;53.176;6.002;2022-11-20T04:05:46;1.30;99.90
54518;DHT22;40423;53.176;6.002;2022-11-20T04:08:12;1.30;99.90
54518;DHT22;40423;53.176;6.002;2022-11-20T04:10:37;1.40;99.90
54518;DHT22;40423;53.176;6.002;2022-11-20T04:13:03;1.30;99.90
54518;DHT22;40423;53.176;6.002;2022-11-20T04:15:29;1.30;99.90
54518;DHT22;40423;53.176;6.002;2022-11-20T04:17:54;1.30;99.90
54518;DHT22;40423;53.176;6.002;2022-11-20T04:20:20;1.30;99.90
54518;DHT22;40423;53.176;6.002;2022-11-20T04:22:46;1.30;99.90
54518;DHT22;40423;53.176;6.002;2022-11-20T04:25:12;1.30;99.90
54518;DHT22;40423;53.176;6.002;2022-11-20T04:27:37;1.20;99.90
54518;DHT22;40423;53.176;6.002;2022-11-20T04:30:04;1.20;99.90
54518;DHT22;40423;53.176;6.002;2022-11-20T04:32:29;1.20;99.90
54518;DHT22;40423;53.176;6.002;2022-11-20T04:34:55;1.10;99.90
54518;DHT22;40423;53.176;6.002;2022-11-20T04:37:21;1.10;99.90
54518;DHT22;40423;53.176;6.002;2022-11-20T04:39:46;1.00;99.90
54518;DHT22;40423;53.176;6.002;2022-11-20T04:42:12;1.00;99.90
54518;DHT22;40423;53.176;6.002;2022-11-20T04:44:56;0.90;99.90
54518;DHT22;40423;53.176;6.002;2022-11-20T04:47:22;0.90;99.90
54518;DHT22;40423;53.176;6.002;2022-11-20T04:49:48;0.80;99.90
54518;DHT22;40423;53.176;6.002;2022-11-20T04:52:14;0.70;99.90
54518;DHT22;40423;53.176;6.002;2022-11-20T04:54:39;0.80;99.90
54518;DHT22;40423;53.176;6.002;2022-11-20T04:57:05;1.20;99.90
54518;DHT22;40423;53.176;6.002;2022-11-20T04:59:31;0.70;99.90
54518;DHT22;40423;53.176;6.002;2022-11-20T05:01:56;0.70;99.90
54518;DHT22;40423;53.176;6.002;2022-11-20T05:04:22;0.70;99.90
54518;DHT22;40423;53.176;6.002;2022-11-20T05:06:49;0.70;99.90
54518;DHT22;40423;53.176;6.002;2022-11-20T05:09:15;0.60;99.90
54518;DHT22;40423;53.176;6.002;2022-11-20T05:11:41;0.60;99.90
54518;DHT22;40423;53.176;6.002;2022-11-20T05:14:06;0.50;99.90
54518;DHT22;40423;53.176;6.002;2022-11-20T05:16:34;0.50;99.90
54518;DHT22;40423;53.176;6.002;2022-11-20T05:18:59;0.60;99.90
54518;DHT22;40423;53.176;6.002;2022-11-20T05:21:25;0.60;99.90
54518;DHT22;40423;53.176;6.002;2022-11-20T05:23:51;0.70;99.90
54518;DHT22;40423;53.176;6.002;2022-11-20T05:26:21;0.60;99.90
54518;DHT22;40423;53.176;6.002;2022-11-20T05:28:48;0.60;99.90
54518;DHT22;40423;53.176;6.002;2022-11-20T05:31:20;0.50;99.90
54518;DHT22;40423;53.176;6.002;2022-11-20T05:33:46;0.50;99.90
54518;DHT22;40423;53.176;6.002;2022-11-20T05:36:13;0.50;99.90
54518;DHT22;40423;53.176;6.002;2022-11-20T05:38:39;0.50;99.90
54518;DHT22;40423;53.176;6.002;2022-11-20T05:41:14;0.50;99.90
54518;DHT22;40423;53.176;6.002;2022-11-20T05:43:43;0.50;99.90
54518;DHT22;40423;53.176;6.002;2022-11-20T05:46:11;0.50;99.90
54518;DHT22;40423;53.176;6.002;2022-11-20T05:48:38;0.60;99.90
54518;DHT22;40423;53.176;6.002;2022-11-20T05:51:06;0.60;99.90
54518;DHT22;40423;53.176;6.002;2022-11-20T05:53:33;0.60;99.90
54518;DHT22;40423;53.176;6.002;2022-11-20T05:56:01;0.60;99.90
54518;DHT22;40423;53.176;6.002;2022-11-20T05:58:28;0.70;99.90
54518;DHT22;40423;53.176;6.002;2022-11-20T06:00:54;0.70;99.90
54518;DHT22;40423;53.176;6.002;2022-11-20T06:03:20;0.70;99.90
54518;DHT22;40423;53.176;6.002;2022-11-20T06:05:46;0.80;99.90
54518;DHT22;40423;53.176;6.002;2022-11-20T06:08:12;0.80;99.90
54518;DHT22;40423;53.176;6.002;2022-11-20T06:10:37;0.70;99.90
54518;DHT22;40423;53.176;6.002;2022-11-20T06:13:03;0.70;99.90
54518;DHT22;40423;53.176;6.002;2022-11-20T06:15:29;0.80;99.90
54518;DHT22;40423;53.176;6.002;2022-11-20T06:17:55;0.80;99.90
54518;DHT22;40423;53.176;6.002;2022-11-20T06:20:21;0.80;99.90
54518;DHT22;40423;53.176;6.002;2022-11-20T06:22:47;0.80;99.90
54518;DHT22;40423;53.176;6.002;2022-11-20T06:25:13;0.90;99.90
54518;DHT22;40423;53.176;6.002;2022-11-20T06:27:39;0.90;99.90
54518;DHT22;40423;53.176;6.002;2022-11-20T06:30:05;0.90;99.90
54518;DHT22;40423;53.176;6.002;2022-11-20T06:32:31;0.90;99.90
54518;DHT22;40423;53.176;6.002;2022-11-20T06:34:57;0.90;99.90
54518;DHT22;40423;53.176;6.002;2022-11-20T06:37:23;0.90;99.90
54518;DHT22;40423;53.176;6.002;2022-11-20T06:39:49;0.80;99.90
54518;DHT22;40423;53.176;6.002;2022-11-20T06:42:14;0.80;99.90
54518;DHT22;40423;53.176;6.002;2022-11-20T06:44:40;0.80;99.90
54518;DHT22;40423;53.176;6.002;2022-11-20T06:47:06;0.80;99.90
54518;DHT22;40423;53.176;6.002;2022-11-20T06:49:31;0.80;99.90
54518;DHT22;40423;53.176;6.002;2022-11-20T06:51:59;0.80;99.90
54518;DHT22;40423;53.176;6.002;2022-11-20T06:54:25;0.70;99.90
54518;DHT22;40423;53.176;6.002;2022-11-20T06:56:51;0.70;99.90
54518;DHT22;40423;53.176;6.002;2022-11-20T06:59:16;0.70;99.90
54518;DHT22;40423;53.176;6.002;2022-11-20T07:01:42;0.70;99.90
54518;DHT22;40423;53.176;6.002;2022-11-20T07:04:08;0.70;99.90
54518;DHT22;40423;53.176;6.002;2022-11-20T07:06:33;0.60;99.90
54518;DHT22;40423;53.176;6.002;2022-11-20T07:09:01;0.60;99.90
54518;DHT22;40423;53.176;6.002;2022-11-20T07:11:27;0.60;99.90
54518;DHT22;40423;53.176;6.002;2022-11-20T07:13:52;0.70;99.90
54518;DHT22;40423;53.176;6.002;2022-11-20T07:16:18;0.70;99.90
54518;DHT22;40423;53.176;6.002;2022-11-20T07:18:44;0.70;99.90
54518;DHT22;40423;53.176;6.002;2022-11-20T07:21:10;0.80;99.90
54518;DHT22;40423;53.176;6.002;2022-11-20T07:23:36;0.80;99.90
54518;DHT22;40423;53.176;6.002;2022-11-20T07:26:04;0.80;99.90
54518;DHT22;40423;53.176;6.002;2022-11-20T07:28:30;0.80;99.90
54518;DHT22;40423;53.176;6.002;2022-11-20T07:30:55;0.80;99.90
54518;DHT22;40423;53.176;6.002;2022-11-20T07:33:21;0.70;99.90
54518;DHT22;40423;53.176;6.002;2022-11-20T07:35:47;0.70;99.90
54518;DHT22;40423;53.176;6.002;2022-11-20T07:38:13;0.70;99.90
54518;DHT22;40423;53.176;6.002;2022-11-20T07:40:38;0.70;99.90
54518;DHT22;40423;53.176;6.002;2022-11-20T07:43:04;0.70;99.90
54518;DHT22;40423;53.176;6.002;2022-11-20T07:45:30;0.70;99.90
54518;DHT22;40423;53.176;6.002;2022-11-20T07:47:55;0.70;99.90
54518;DHT22;40423;53.176;6.002;2022-11-20T07:50:21;0.80;99.90
54518;DHT22;40423;53.176;6.002;2022-11-20T07:52:47;0.80;99.90
54518;DHT22;40423;53.176;6.002;2022-11-20T07:55:13;0.70;99.90
54518;DHT22;40423;53.176;6.002;2022-11-20T07:57:39;0.70;99.90
54518;DHT22;40423;53.176;6.002;2022-11-20T08:00:06;0.70;99.90
54518;DHT22;40423;53.176;6.002;2022-11-20T08:02:36;0.70;99.90
54518;DHT22;40423;53.176;6.002;2022-11-20T08:05:02;0.80;99.90
54518;DHT22;40423;53.176;6.002;2022-11-20T08:07:27;0.80;99.90
54518;DHT22;40423;53.176;6.002;2022-11-20T08:09:53;0.70;99.90
54518;DHT22;40423;53.176;6.002;2022-11-20T08:12:20;0.80;99.90
54518;DHT22;40423;53.176;6.002;2022-11-20T08:15:05;0.80;99.90
54518;DHT22;40423;53.176;6.002;2022-11-20T08:17:31;0.80;99.90
54518;DHT22;40423;53.176;6.002;2022-11-20T08:19:57;0.80;99.90
54518;DHT22;40423;53.176;6.002;2022-11-20T08:22:23;0.80;99.90
54518;DHT22;40423;53.176;6.002;2022-11-20T08:24:50;0.80;99.90
54518;DHT22;40423;53.176;6.002;2022-11-20T08:27:15;0.90;99.90
54518;DHT22;40423;53.176;6.002;2022-11-20T08:29:41;0.90;99.90
54518;DHT22;40423;53.176;6.002;2022-11-20T08:32:07;1.00;99.90
54518;DHT22;40423;53.176;6.002;2022-11-20T08:34:33;1.00;99.90
54518;DHT22;40423;53.176;6.002;2022-11-20T08:36:58;1.00;99.90
54518;DHT22;40423;53.176;6.002;2022-11-20T08:39:24;1.10;99.90
54518;DHT22;40423;53.176;6.002;2022-11-20T08:41:50;1.10;99.90
54518;DHT22;40423;53.176;6.002;2022-11-20T08:44:15;1.10;99.90
54518;DHT22;40423;53.176;6.002;2022-11-20T08:46:41;1.20;99.90
54518;DHT22;40423;53.176;6.002;2022-11-20T08:49:10;1.20;99.90
54518;DHT22;40423;53.176;6.002;2022-11-20T08:51:37;1.20;99.90
54518;DHT22;40423;53.176;6.002;2022-11-20T08:54:03;1.20;99.90
54518;DHT22;40423;53.176;6.002;2022-11-20T08:56:29;1.30;99.90
54518;DHT22;40423;53.176;6.002;2022-11-20T08:58:55;1.30;99.90
54518;DHT22;40423;53.176;6.002;2022-11-20T09:01:21;1.40;99.90
54518;DHT22;40423;53.176;6.002;2022-11-20T09:03:48;1.40;99.90
54518;DHT22;40423;53.176;6.002;2022-11-20T09:06:29;1.40;99.90
54518;DHT22;40423;53.176;6.002;2022-11-20T09:08:55;1.50;99.90
54518;DHT22;40423;53.176;6.002;2022-11-20T09:11:21;1.50;99.90
54518;DHT22;40423;53.176;6.002;2022-11-20T09:13:47;1.50;99.90
54518;DHT22;40423;53.176;6.002;2022-11-20T09:16:12;1.50;99.90
54518;DHT22;40423;53.176;6.002;2022-11-20T09:18:38;1.50;99.90
54518;DHT22;40423;53.176;6.002;2022-11-20T09:21:10;1.50;99.90
54518;DHT22;40423;53.176;6.002;2022-11-20T09:23:36;1.50;99.90
54518;DHT22;40423;53.176;6.002;2022-11-20T09:26:13;1.50;99.90
54518;DHT22;40423;53.176;6.002;2022-11-20T09:28:39;1.50;99.90
54518;DHT22;40423;53.176;6.002;2022-11-20T09:31:09;1.50;99.90
54518;DHT22;40423;53.176;6.002;2022-11-20T09:33:39;1.60;99.90
54518;DHT22;40423;53.176;6.002;2022-11-20T09:36:05;1.70;99.90
54518;DHT22;40423;53.176;6.002;2022-11-20T09:38:31;1.70;99.90
54518;DHT22;40423;53.176;6.002;2022-11-20T09:41:01;1.70;99.90
54518;DHT22;40423;53.176;6.002;2022-11-20T09:46:25;1.90;99.90
54518;DHT22;40423;53.176;6.002;2022-11-20T09:56:41;2.00;99.90
54518;DHT22;40423;53.176;6.002;2022-11-20T09:59:31;2.10;99.90
54518;DHT22;40423;53.176;6.002;2022-11-20T10:01:59;2.10;99.90
54518;DHT22;40423;53.176;6.002;2022-11-20T10:04:25;2.10;99.90
54518;DHT22;40423;53.176;6.002;2022-11-20T10:09:39;2.20;99.90
54518;DHT22;40423;53.176;6.002;2022-11-20T10:15:33;2.30;99.90
54518;DHT22;40423;53.176;6.002;2022-11-20T10:18:50;2.30;99.90
54518;DHT22;40423;53.176;6.002;2022-11-20T10:29:07;2.60;99.90
54518;DHT22;40423;53.176;6.002;2022-11-20T10:31:41;2.60;99.90
54518;DHT22;40423;53.176;6.002;2022-11-20T10:34:27;2.70;99.90
54518;DHT22;40423;53.176;6.002;2022-11-20T10:37:26;2.80;99.90
54518;DHT22;40423;53.176;6.002;2022-11-20T10:42:43;2.90;99.90
54518;DHT22;40423;53.176;6.002;2022-11-20T10:48:10;3.10;99.90
54518;DHT22;40423;53.176;6.002;2022-11-20T10:50:40;3.20;99.90
54518;DHT22;40423;53.176;6.002;2022-11-20T10:53:40;3.30;99.90
54518;DHT22;40423;53.176;6.002;2022-11-20T11:01:26;3.40;99.90
54518;DHT22;40423;53.176;6.002;2022-11-20T11:03:53;3.40;99.90
54518;DHT22;40423;53.176;6.002;2022-11-20T11:06:37;3.50;99.90
54518;DHT22;40423;53.176;6.002;2022-11-20T11:09:35;3.60;99.90
54518;DHT22;40423;53.176;6.002;2022-11-20T11:12:07;3.70;99.90
54518;DHT22;40423;53.176;6.002;2022-11-20T11:14:45;3.70;99.90
54518;DHT22;40423;53.176;6.002;2022-11-20T11:17:26;3.70;99.90
54518;DHT22;40423;53.176;6.002;2022-11-20T11:20:19;3.80;99.90
54518;DHT22;40423;53.176;6.002;2022-11-20T11:22:57;3.80;99.90
54518;DHT22;40423;53.176;6.002;2022-11-20T11:25:34;3.80;99.90
54518;DHT22;40423;53.176;6.002;2022-11-20T11:28:03;3.80;99.90
54518;DHT22;40423;53.176;6.002;2022-11-20T11:30:40;3.60;99.90
54518;DHT22;40423;53.176;6.002;2022-11-20T11:33:12;3.80;99.90
54518;DHT22;40423;53.176;6.002;2022-11-20T11:35:51;3.90;99.90
54518;DHT22;40423;53.176;6.002;2022-11-20T11:38:36;3.90;99.90
54518;DHT22;40423;53.176;6.002;2022-11-20T11:41:04;3.90;99.90
54518;DHT22;40423;53.176;6.002;2022-11-20T11:43:36;3.90;99.90
54518;DHT22;40423;53.176;6.002;2022-11-20T11:49:16;4.00;99.90
54518;DHT22;40423;53.176;6.002;2022-11-20T11:52:10;4.10;99.90
54518;DHT22;40423;53.176;6.002;2022-11-20T11:57:33;4.00;99.90
54518;DHT22;40423;53.176;6.002;2022-11-20T12:05:28;4.00;99.90
54518;DHT22;40423;53.176;6.002;2022-11-20T12:07:56;4.00;99.90
54518;DHT22;40423;53.176;6.002;2022-11-20T12:15:50;4.00;99.90
54518;DHT22;40423;53.176;6.002;2022-11-20T12:18:20;3.90;99.90
54518;DHT22;40423;53.176;6.002;2022-11-20T12:26:44;3.90;99.90
54518;DHT22;40423;53.176;6.002;2022-11-20T12:31:56;4.20;99.90
54518;DHT22;40423;53.176;6.002;2022-11-20T12:34:46;3.90;99.90
54518;DHT22;40423;53.176;6.002;2022-11-20T12:49:04;4.00;99.90
54518;DHT22;40423;53.176;6.002;2022-11-20T12:51:40;3.90;99.90
54518;DHT22;40423;53.176;6.002;2022-11-20T12:57:28;3.90;99.90
54518;DHT22;40423;53.176;6.002;2022-11-20T13:07:44;3.90;99.90
54518;DHT22;40423;53.176;6.002;2022-11-20T13:10:32;4.00;99.90
54518;DHT22;40423;53.176;6.002;2022-11-20T13:15:49;3.90;99.90
54518;DHT22;40423;53.176;6.002;2022-11-20T13:18:18;3.90;99.90
54518;DHT22;40423;53.176;6.002;2022-11-20T13:20:44;3.90;99.90
54518;DHT22;40423;53.176;6.002;2022-11-20T13:23:11;3.90;99.90
54518;DHT22;40423;53.176;6.002;2022-11-20T13:25:40;3.90;99.90
54518;DHT22;40423;53.176;6.002;2022-11-20T13:30:35;3.90;99.90
54518;DHT22;40423;53.176;6.002;2022-11-20T13:33:08;3.90;99.90
54518;DHT22;40423;53.176;6.002;2022-11-20T13:35:41;3.90;99.90
54518;DHT22;40423;53.176;6.002;2022-11-20T13:41:04;3.80;99.90
54518;DHT22;40423;53.176;6.002;2022-11-20T13:43:52;3.80;99.90
54518;DHT22;40423;53.176;6.002;2022-11-20T13:46:18;3.80;99.90
54518;DHT22;40423;53.176;6.002;2022-11-20T13:48:50;3.80;99.90
54518;DHT22;40423;53.176;6.002;2022-11-20T13:51:49;3.80;99.90
54518;DHT22;40423;53.176;6.002;2022-11-20T14:00:07;3.80;99.90
54518;DHT22;40423;53.176;6.002;2022-11-20T14:02:36;3.80;99.90
54518;DHT22;40423;53.176;6.002;2022-11-20T14:07:50;3.80;99.90
54518;DHT22;40423;53.176;6.002;2022-11-20T14:10:26;3.80;99.90
54518;DHT22;40423;53.176;6.002;2022-11-20T14:12:52;4.10;99.90
54518;DHT22;40423;53.176;6.002;2022-11-20T14:15:33;4.30;99.90
54518;DHT22;40423;53.176;6.002;2022-11-20T14:18:10;3.70;99.90
54518;DHT22;40423;53.176;6.002;2022-11-20T14:20:38;4.10;99.90
54518;DHT22;40423;53.176;6.002;2022-11-20T14:23:04;4.10;99.90
54518;DHT22;40423;53.176;6.002;2022-11-20T14:25:30;3.60;99.90
54518;DHT22;40423;53.176;6.002;2022-11-20T14:28:01;3.60;99.90
54518;DHT22;40423;53.176;6.002;2022-11-20T14:30:43;4.20;99.90
54518;DHT22;40423;53.176;6.002;2022-11-20T14:33:11;3.60;99.90
54518;DHT22;40423;53.176;6.002;2022-11-20T14:35:46;3.90;99.90
54518;DHT22;40423;53.176;6.002;2022-11-20T14:38:14;3.90;99.90
54518;DHT22;40423;53.176;6.002;2022-11-20T14:40:41;3.70;99.90
54518;DHT22;40423;53.176;6.002;2022-11-20T14:43:27;4.20;99.90
54518;DHT22;40423;53.176;6.002;2022-11-20T14:46:03;3.50;99.90
54518;DHT22;40423;53.176;6.002;2022-11-20T14:48:38;3.40;99.90
54518;DHT22;40423;53.176;6.002;2022-11-20T14:51:04;3.40;99.90
54518;DHT22;40423;53.176;6.002;2022-11-20T14:53:30;4.20;99.90
54518;DHT22;40423;53.176;6.002;2022-11-20T14:56:01;3.40;99.90
54518;DHT22;40423;53.176;6.002;2022-11-20T14:58:29;4.20;99.90
54518;DHT22;40423;53.176;6.002;2022-11-20T15:01:00;3.30;99.90
54518;DHT22;40423;53.176;6.002;2022-11-20T15:03:37;3.30;99.90
54518;DHT22;40423;53.176;6.002;2022-11-20T15:06:05;3.30;99.90
54518;DHT22;40423;53.176;6.002;2022-11-20T15:08:31;3.30;99.90
54518;DHT22;40423;53.176;6.002;2022-11-20T15:10:57;3.30;99.90
54518;DHT22;40423;53.176;6.002;2022-11-20T15:15:59;3.30;99.90
54518;DHT22;40423;53.176;6.002;2022-11-20T15:18:38;3.90;99.90
54518;DHT22;40423;53.176;6.002;2022-11-20T15:21:11;3.20;99.90
54518;DHT22;40423;53.176;6.002;2022-11-20T15:23:37;3.30;99.90
54518;DHT22;40423;53.176;6.002;2022-11-20T15:26:07;3.20;99.90
54518;DHT22;40423;53.176;6.002;2022-11-20T15:28:36;3.20;99.90
54518;DHT22;40423;53.176;6.002;2022-11-20T15:31:03;3.60;99.90
54518;DHT22;40423;53.176;6.002;2022-11-20T15:33:33;3.10;99.90
54518;DHT22;40423;53.176;6.002;2022-11-20T15:35:59;3.10;99.90
54518;DHT22;40423;53.176;6.002;2022-11-20T15:38:25;3.90;99.90
54518;DHT22;40423;53.176;6.002;2022-11-20T15:40:51;4.10;99.90
54518;DHT22;40423;53.176;6.002;2022-11-20T15:43:17;3.00;99.90
54518;DHT22;40423;53.176;6.002;2022-11-20T15:45:49;3.80;99.90
54518;DHT22;40423;53.176;6.002;2022-11-20T15:48:22;3.00;99.90
54518;DHT22;40423;53.176;6.002;2022-11-20T15:53:36;2.90;99.90
54518;DHT22;40423;53.176;6.002;2022-11-20T15:56:04;3.50;99.90
54518;DHT22;40423;53.176;6.002;2022-11-20T15:58:30;2.90;99.90
54518;DHT22;40423;53.176;6.002;2022-11-20T16:00:56;3.30;99.90
54518;DHT22;40423;53.176;6.002;2022-11-20T16:03:22;2.90;99.90
54518;DHT22;40423;53.176;6.002;2022-11-20T16:05:48;2.90;99.90
54518;DHT22;40423;53.176;6.002;2022-11-20T16:08:14;3.30;99.90
54518;DHT22;40423;53.176;6.002;2022-11-20T16:10:40;2.90;99.90
54518;DHT22;40423;53.176;6.002;2022-11-20T16:13:13;3.50;99.90
54518;DHT22;40423;53.176;6.002;2022-11-20T16:16:00;2.80;99.90
54518;DHT22;40423;53.176;6.002;2022-11-20T16:18:30;2.80;99.90
54518;DHT22;40423;53.176;6.002;2022-11-20T16:20:56;2.90;99.90
54518;DHT22;40423;53.176;6.002;2022-11-20T16:23:25;2.80;99.90
54518;DHT22;40423;53.176;6.002;2022-11-20T16:25:51;3.60;99.90
54518;DHT22;40423;53.176;6.002;2022-11-20T16:28:17;2.90;99.90
54518;DHT22;40423;53.176;6.002;2022-11-20T16:30:43;2.60;99.90
54518;DHT22;40423;53.176;6.002;2022-11-20T16:33:15;3.70;99.90
54518;DHT22;40423;53.176;6.002;2022-11-20T16:35:42;2.90;99.90
54518;DHT22;40423;53.176;6.002;2022-11-20T16:38:08;2.90;99.90
54518;DHT22;40423;53.176;6.002;2022-11-20T16:40:34;2.80;99.90
54518;DHT22;40423;53.176;6.002;2022-11-20T16:43:10;3.20;99.90
54518;DHT22;40423;53.176;6.002;2022-11-20T16:45:44;2.80;99.90
54518;DHT22;40423;53.176;6.002;2022-11-20T16:48:16;3.10;99.90
54518;DHT22;40423;53.176;6.002;2022-11-20T16:50:50;2.90;99.90
54518;DHT22;40423;53.176;6.002;2022-11-20T16:53:20;2.90;99.90
54518;DHT22;40423;53.176;6.002;2022-11-20T16:55:47;3.10;99.90
54518;DHT22;40423;53.176;6.002;2022-11-20T16:58:16;2.90;99.90
54518;DHT22;40423;53.176;6.002;2022-11-20T17:00:42;2.90;99.90
54518;DHT22;40423;53.176;6.002;2022-11-20T17:03:08;3.50;99.90
54518;DHT22;40423;53.176;6.002;2022-11-20T17:05:34;2.90;99.90
54518;DHT22;40423;53.176;6.002;2022-11-20T17:08:03;2.90;99.90
54518;DHT22;40423;53.176;6.002;2022-11-20T17:10:29;2.90;99.90
54518;DHT22;40423;53.176;6.002;2022-11-20T17:12:54;2.90;99.90
54518;DHT22;40423;53.176;6.002;2022-11-20T17:15:20;2.40;99.90
54518;DHT22;40423;53.176;6.002;2022-11-20T17:17:46;2.80;99.90
54518;DHT22;40423;53.176;6.002;2022-11-20T17:20:12;2.80;99.90
54518;DHT22;40423;53.176;6.002;2022-11-20T17:22:37;2.80;99.90
54518;DHT22;40423;53.176;6.002;2022-11-20T17:25:04;2.80;99.90
54518;DHT22;40423;53.176;6.002;2022-11-20T17:27:30;2.80;99.90
54518;DHT22;40423;53.176;6.002;2022-11-20T17:29:55;3.60;99.90
54518;DHT22;40423;53.176;6.002;2022-11-20T17:32:23;2.80;99.90
54518;DHT22;40423;53.176;6.002;2022-11-20T17:34:49;3.20;99.90
54518;DHT22;40423;53.176;6.002;2022-11-20T17:37:14;2.70;99.90
54518;DHT22;40423;53.176;6.002;2022-11-20T17:39:40;3.60;99.90
54518;DHT22;40423;53.176;6.002;2022-11-20T17:42:06;2.80;99.90
54518;DHT22;40423;53.176;6.002;2022-11-20T17:44:50;2.70;99.90